Time;durP1;ratioP1;P1;durP2;ratioP2;P2;SDS_P1;SDS_P2;PMS_P1;PMS_P2;Temp;Humidity;BMP_temperature;BMP_pressure;BME280_temperature;BME280_humidity;BME280_pressure;Samples;Min_cycle;Max_cycle;Signal;HPM_P1;HPM_P2
2023/03/08 00:00:28;;;;;;;8.20;5.60;;;;;;;2.47;79.89;98224.87;130467;1261;107541;-72
2023/03/08 00:03:55;;;;;;;9.40;6.00;;;;;;;2.33;79.73;98224.48;130449;1270;107537;-73
2023/03/08 00:07:01;;;;;;;8.20;5.00;;;;;;;2.26;79.78;98226.23;130507;1262;107588;-73
2023/03/08 00:10:07;;;;;;;11.50;6.50;;;;;;;2.23;80.00;98228.26;130542;1262;108664;-73
2023/03/08 00:13:13;;;;;;;6.90;4.60;;;;;;;2.21;80.05;98232.19;130457;1261;107550;-73
2023/03/08 00:16:19;;;;;;;7.60;4.90;;;;;;;2.22;79.87;98232.77;130495;1260;107263;-73
2023/03/08 00:19:25;;;;;;;4.80;3.30;;;;;;;2.32;80.04;98229.67;130525;1261;107492;-72
2023/03/08 00:22:30;;;;;;;7.00;4.30;;;;;;;2.40;80.01;98228.45;130518;1260;107535;-72
2023/03/08 00:25:36;;;;;;;6.50;4.70;;;;;;;2.42;79.59;98230.54;130565;1261;107404;-72
2023/03/08 00:28:42;;;;;;;6.80;5.00;;;;;;;2.40;79.75;98230.70;130629;1262;107529;-74
2023/03/08 00:31:48;;;;;;;6.50;5.40;;;;;;;2.36;79.98;98232.60;130487;1262;107408;-72
2023/03/08 00:34:54;;;;;;;6.60;4.40;;;;;;;2.31;79.69;98236.41;130468;1257;107382;-73
2023/03/08 00:37:59;;;;;;;4.10;3.10;;;;;;;2.25;79.94;98230.42;130517;1262;107324;-73
2023/03/08 00:41:05;;;;;;;5.10;3.80;;;;;;;2.14;79.99;98234.95;130504;1261;106310;-73
2023/03/08 00:44:11;;;;;;;6.10;4.30;;;;;;;2.03;80.35;98231.45;130409;1262;107587;-72
2023/03/08 00:47:17;;;;;;;6.30;3.80;;;;;;;1.97;80.64;98236.79;130650;1256;106711;-71
2023/03/08 00:50:23;;;;;;;6.30;4.50;;;;;;;1.90;80.58;98234.28;130671;1260;107465;-70
2023/03/08 00:53:29;;;;;;;6.50;3.90;;;;;;;1.95;81.18;98234.83;130673;1261;107283;-73
2023/03/08 00:56:34;;;;;;;7.00;4.10;;;;;;;1.89;80.84;98235.03;130544;1262;107764;-73
2023/03/08 00:59:40;;;;;;;4.60;3.50;;;;;;;1.89;80.80;98239.08;130358;1261;107520;-73
2023/03/08 01:02:46;;;;;;;5.10;3.20;;;;;;;1.84;81.06;98239.30;130483;1267;107408;-73
2023/03/08 01:05:54;;;;;;;6.00;4.40;;;;;;;1.83;80.75;98241.96;130671;1256;108876;-72
2023/03/08 01:09:00;;;;;;;3.70;3.10;;;;;;;1.82;80.61;98241.02;130447;1269;107581;-72
2023/03/08 01:12:07;;;;;;;12.80;8.80;;;;;;;1.74;80.50;98244.39;130526;1262;107262;-73
2023/03/08 01:15:13;;;;;;;10.30;5.00;;;;;;;1.71;80.60;98241.00;130529;1260;108305;-72
2023/03/08 01:18:19;;;;;;;4.60;3.00;;;;;;;1.69;80.67;98234.38;130449;1261;107558;-72
2023/03/08 01:21:26;;;;;;;4.70;2.50;;;;;;;1.74;80.64;98222.48;130281;1271;107261;-73
2023/03/08 01:24:32;;;;;;;4.10;2.30;;;;;;;1.83;80.54;98218.35;130579;1268;108566;-73
2023/03/08 01:27:37;;;;;;;5.50;3.00;;;;;;;1.91;80.56;98220.13;130480;1260;107244;-74
2023/03/08 01:30:43;;;;;;;3.30;2.20;;;;;;;2.01;80.38;98229.04;130483;1261;107552;-73
2023/03/08 01:33:49;;;;;;;3.70;2.20;;;;;;;2.08;80.39;98225.53;130549;1261;107246;-73
2023/03/08 01:36:54;;;;;;;4.50;2.10;;;;;;;2.14;80.33;98224.11;130464;1260;107546;-72
2023/03/08 01:40:00;;;;;;;3.40;2.00;;;;;;;2.16;80.13;98223.53;130553;1261;107258;-71
2023/03/08 01:43:23;;;;;;;4.20;2.60;;;;;;;2.16;80.06;98224.58;130324;1262;107642;-72
2023/03/08 01:46:31;;;;;;;2.10;1.60;;;;;;;2.16;79.84;98229.29;130670;1260;107629;-70
2023/03/08 01:49:45;;;;;;;3.80;1.70;;;;;;;2.15;79.97;98225.91;130504;1256;107524;-73
2023/03/08 01:52:53;;;;;;;3.90;1.60;;;;;;;2.13;80.00;98223.98;130541;1261;107574;-72
2023/03/08 01:55:59;;;;;;;2.30;1.30;;;;;;;2.07;80.09;98226.14;130346;1261;108678;-73
2023/03/08 01:59:06;;;;;;;3.10;1.30;;;;;;;2.03;79.92;98225.55;130548;1259;107582;-72
2023/03/08 02:02:12;;;;;;;3.60;1.50;;;;;;;2.03;79.97;98227.75;130686;1262;105529;-73
2023/03/08 02:05:19;;;;;;;3.60;1.80;;;;;;;2.08;79.89;98221.87;130360;1263;106432;-73
2023/03/08 02:08:25;;;;;;;3.40;2.00;;;;;;;2.14;79.94;98225.27;130408;1260;107314;-74
2023/03/08 02:11:33;;;;;;;5.50;2.10;;;;;;;2.19;79.88;98233.41;130419;1263;107271;-73
2023/03/08 02:14:40;;;;;;;5.40;1.70;;;;;;;2.21;79.94;98234.47;130334;1261;107364;-73
2023/03/08 02:17:48;;;;;;;2.70;1.60;;;;;;;2.20;79.68;98233.86;130536;1261;107609;-73
2023/03/08 02:20:53;;;;;;;5.00;1.90;;;;;;;2.20;79.98;98230.91;130479;1260;107888;-72
2023/03/08 02:24:06;;;;;;;3.70;2.30;;;;;;;2.17;79.96;98229.40;130415;1258;106650;-73
2023/03/08 02:27:17;;;;;;;7.60;3.70;;;;;;;2.15;80.03;98232.20;130385;1264;106424;-74
2023/03/08 02:30:27;;;;;;;7.20;4.30;;;;;;;2.12;80.02;98231.16;130456;1263;108650;-74
2023/03/08 02:33:33;;;;;;;7.10;3.40;;;;;;;2.08;79.93;98235.35;130619;1267;107560;-71
2023/03/08 02:36:39;;;;;;;5.00;2.70;;;;;;;2.08;80.06;98238.36;130637;1258;108668;-74
2023/03/08 02:39:45;;;;;;;4.80;3.00;;;;;;;2.10;80.07;98236.75;130615;1258;108566;-74
2023/03/08 02:42:50;;;;;;;4.20;3.10;;;;;;;2.12;80.18;98236.16;130410;1261;107539;-71
2023/03/08 02:45:56;;;;;;;5.30;3.40;;;;;;;2.14;80.08;98239.47;130520;1260;108660;-74
2023/03/08 02:49:03;;;;;;;5.10;3.30;;;;;;;2.15;80.05;98242.42;130592;1267;107658;-73
2023/03/08 02:52:09;;;;;;;4.90;3.60;;;;;;;2.11;79.99;98247.33;130631;1261;107565;-73
2023/03/08 02:55:14;;;;;;;4.60;3.40;;;;;;;2.07;79.95;98251.05;130648;1257;107605;-70
2023/03/08 02:58:20;;;;;;;6.10;4.00;;;;;;;2.06;79.93;98254.89;130391;1271;107495;-73
2023/03/08 03:01:26;;;;;;;4.40;3.10;;;;;;;2.03;79.99;98256.41;130593;1268;106334;-73
2023/03/08 03:04:33;;;;;;;5.70;3.80;;;;;;;1.99;80.00;98256.36;130378;1263;107473;-73
2023/03/08 03:07:40;;;;;;;5.70;3.70;;;;;;;1.94;79.89;98270.34;130445;1258;107590;-73
2023/03/08 03:10:47;;;;;;;5.20;3.60;;;;;;;1.96;80.09;98282.48;130393;1263;107564;-73
2023/03/08 03:13:58;;;;;;;3.60;2.90;;;;;;;2.01;80.25;98285.66;130548;1260;107499;-71
2023/03/08 03:17:07;;;;;;;4.40;2.90;;;;;;;2.07;80.22;98283.53;130494;1261;107554;-73
2023/03/08 03:20:14;;;;;;;7.00;4.90;;;;;;;2.11;79.92;98290.48;130532;1259;107698;-71
2023/03/08 03:23:20;;;;;;;5.70;4.40;;;;;;;2.13;79.81;98296.27;130571;1260;107535;-70
2023/03/08 03:26:30;;;;;;;6.50;4.40;;;;;;;2.11;79.90;98308.06;130493;1269;107565;-73
2023/03/08 03:29:36;;;;;;;6.00;4.10;;;;;;;2.08;79.81;98312.01;130480;1260;107565;-72
2023/03/08 03:32:50;;;;;;;6.30;4.50;;;;;;;2.05;79.74;98317.06;130494;1258;106538;-74
2023/03/08 03:35:59;;;;;;;5.90;4.20;;;;;;;1.99;79.81;98319.20;130516;1260;107558;-72
2023/03/08 03:39:06;;;;;;;5.20;4.20;;;;;;;1.94;79.96;98323.27;130445;1258;109284;-72
2023/03/08 03:42:12;;;;;;;9.60;5.70;;;;;;;1.91;80.05;98326.54;130561;1260;107533;-72
2023/03/08 03:45:23;;;;;;;29.70;17.20;;;;;;;1.88;80.08;98327.55;130362;1260;107486;-71
2023/03/08 03:48:29;;;;;;;161.10;60.10;;;;;;;1.89;80.28;98330.79;130517;1260;109239;-72
2023/03/08 03:51:35;;;;;;;321.70;97.90;;;;;;;1.94;80.17;98331.20;130693;1261;108725;-73
2023/03/08 03:55:06;;;;;;;291.30;90.90;;;;;;;1.97;80.25;98336.67;130468;1261;107283;-73
2023/03/08 03:58:12;;;;;;;496.20;173.10;;;;;;;1.99;80.20;98337.12;130700;1260;106693;-72
2023/03/08 04:01:20;;;;;;;223.40;77.70;;;;;;;2.00;80.10;98335.39;130392;1264;107554;-71
2023/03/08 04:04:26;;;;;;;93.40;43.50;;;;;;;1.98;80.09;98336.85;130586;1260;106000;-74
2023/03/08 04:07:32;;;;;;;61.30;37.10;;;;;;;1.92;80.24;98340.12;130578;1260;107555;-72
2023/03/08 04:10:39;;;;;;;40.80;27.40;;;;;;;1.90;80.00;98345.98;130515;1260;107434;-72
2023/03/08 04:13:47;;;;;;;28.20;18.60;;;;;;;1.85;80.11;98349.77;130516;1260;107487;-73
2023/03/08 04:16:53;;;;;;;18.90;13.40;;;;;;;1.77;79.98;98356.45;130532;1254;107573;-72
2023/03/08 04:20:05;;;;;;;29.40;20.40;;;;;;;1.70;80.20;98362.61;130512;1260;107574;-73
2023/03/08 04:23:14;;;;;;;18.30;13.20;;;;;;;1.66;80.31;98361.18;130496;1269;107446;-73
2023/03/08 04:26:23;;;;;;;9.40;6.70;;;;;;;1.67;80.39;98358.66;130548;1261;107549;-72
2023/03/08 04:29:29;;;;;;;19.50;13.60;;;;;;;1.68;80.43;98360.81;130498;1261;107585;-72
2023/03/08 04:32:35;;;;;;;20.40;14.30;;;;;;;1.72;80.26;98352.92;130611;1268;107495;-72
2023/03/08 04:35:41;;;;;;;13.80;9.40;;;;;;;1.75;80.21;98351.41;130551;1262;107487;-73
2023/03/08 04:38:49;;;;;;;279.40;124.70;;;;;;;1.75;80.06;98348.09;130642;1261;107569;-73
2023/03/08 04:41:55;;;;;;;515.50;212.10;;;;;;;1.71;80.11;98352.98;130634;1261;106596;-72
2023/03/08 04:45:10;;;;;;;803.30;331.70;;;;;;;1.68;80.07;98357.82;130514;1269;107672;-72
2023/03/08 04:48:16;;;;;;;908.70;338.90;;;;;;;1.64;80.24;98363.71;130531;1261;107602;-73
2023/03/08 04:51:24;;;;;;;391.20;113.50;;;;;;;1.58;80.09;98364.42;130541;1262;107595;-72
2023/03/08 04:54:30;;;;;;;736.00;244.40;;;;;;;1.52;80.04;98375.09;130522;1257;107509;-74
2023/03/08 04:57:43;;;;;;;1025.20;355.70;;;;;;;1.46;80.20;98380.05;130640;1260;107562;-73
2023/03/08 05:00:49;;;;;;;1209.30;412.60;;;;;;;1.45;80.06;98383.84;130467;1262;107569;-75
2023/03/08 05:03:55;;;;;;;689.30;224.80;;;;;;;1.44;80.11;98393.48;130474;1257;107533;-72
2023/03/08 05:07:07;;;;;;;849.20;268.30;;;;;;;1.44;80.03;98399.73;130509;1259;107511;-75
2023/03/08 05:10:14;;;;;;;285.50;80.80;;;;;;;1.45;80.05;98396.04;130544;1261;107506;-72
2023/03/08 05:13:20;;;;;;;617.70;247.60;;;;;;;1.43;79.90;98393.96;130507;1258;107577;-72
2023/03/08 05:16:27;;;;;;;696.40;312.20;;;;;;;1.40;80.06;98394.11;130497;1259;107629;-74
2023/03/08 05:19:32;;;;;;;325.00;123.20;;;;;;;1.40;80.16;98401.64;130639;1261;105461;-72
2023/03/08 05:22:38;;;;;;;85.70;39.60;;;;;;;1.40;80.26;98412.85;130381;1271;107184;-74
2023/03/08 05:25:44;;;;;;;25.90;16.20;;;;;;;1.37;80.19;98417.08;130615;1257;107193;-72
2023/03/08 05:28:50;;;;;;;19.70;10.70;;;;;;;1.38;80.31;98424.51;130414;1261;107582;-73
2023/03/08 05:31:57;;;;;;;17.90;9.60;;;;;;;1.42;80.37;98434.16;130437;1257;107436;-74
2023/03/08 05:35:04;;;;;;;19.80;10.70;;;;;;;1.49;80.34;98440.05;130474;1262;107495;-73
2023/03/08 05:38:12;;;;;;;17.10;10.00;;;;;;;1.54;80.29;98444.16;130556;1261;108013;-73
2023/03/08 05:41:19;;;;;;;16.50;9.10;;;;;;;1.56;80.08;98448.64;130526;1258;107413;-73
2023/03/08 05:44:26;;;;;;;16.10;9.10;;;;;;;1.58;80.18;98454.16;130731;1261;107507;-73
2023/03/08 05:47:33;;;;;;;12.20;8.30;;;;;;;1.52;80.10;98456.38;130409;1257;107482;-71
2023/03/08 05:50:40;;;;;;;194.10;78.70;;;;;;;1.46;80.00;98457.67;130523;1261;107576;-72
2023/03/08 05:53:46;;;;;;;325.10;100.60;;;;;;;1.46;80.26;98461.71;130502;1269;107548;-73
2023/03/08 05:56:53;;;;;;;899.50;323.10;;;;;;;1.47;80.06;98463.89;130461;1264;107386;-73
2023/03/08 06:00:06;;;;;;;469.10;146.90;;;;;;;1.43;80.07;98474.08;130922;1260;107497;-71
2023/03/08 06:03:21;;;;;;;478.30;148.20;;;;;;;1.45;80.21;98476.48;130835;1255;107582;-71
2023/03/08 06:06:28;;;;;;;432.00;140.20;;;;;;;1.50;80.17;98485.65;130901;1260;107573;-72
2023/03/08 06:09:37;;;;;;;202.50;62.50;;;;;;;1.57;80.09;98489.22;130619;1258;108581;-71
2023/03/08 06:12:44;;;;;;;1405.90;629.80;;;;;;;1.61;80.20;98495.24;130765;1260;107678;-73
2023/03/08 06:15:56;;;;;;;508.00;185.20;;;;;;;1.70;79.98;98501.05;130644;1257;107566;-71
2023/03/08 06:19:02;;;;;;;175.70;70.20;;;;;;;1.73;79.93;98500.55;130466;1261;107575;-73
2023/03/08 06:22:08;;;;;;;56.70;24.80;;;;;;;1.70;79.67;98511.73;130527;1257;107458;-72
2023/03/08 06:25:14;;;;;;;117.60;64.40;;;;;;;1.61;79.60;98519.73;130585;1257;107406;-73
2023/03/08 06:28:21;;;;;;;41.10;24.80;;;;;;;1.56;79.52;98524.38;130527;1258;108685;-73
2023/03/08 06:31:27;;;;;;;53.90;36.00;;;;;;;1.50;79.54;98528.40;130562;1259;107564;-73
2023/03/08 06:34:35;;;;;;;168.10;92.80;;;;;;;1.47;79.66;98530.13;130466;1262;107732;-73
2023/03/08 06:37:41;;;;;;;111.60;66.50;;;;;;;1.48;79.74;98532.66;130453;1260;107566;-72
2023/03/08 06:40:47;;;;;;;48.30;30.30;;;;;;;1.56;79.74;98532.77;130446;1261;108719;-73
2023/03/08 06:43:53;;;;;;;32.40;20.70;;;;;;;1.65;79.55;98534.15;130493;1261;107486;-72
2023/03/08 06:46:59;;;;;;;30.30;22.80;;;;;;;1.70;79.45;98540.83;130507;1257;107569;-72
2023/03/08 06:50:05;;;;;;;22.20;13.70;;;;;;;1.72;79.39;98549.39;130437;1261;108434;-73
2023/03/08 06:53:12;;;;;;;21.20;13.80;;;;;;;1.75;79.57;98549.98;130588;1260;107558;-72
2023/03/08 06:56:33;;;;;;;18.90;11.00;;;;;;;1.83;79.29;98551.71;130502;1260;107660;-74
2023/03/08 06:59:39;;;;;;;13.90;8.70;;;;;;;1.78;79.24;98553.41;130511;1269;107494;-72
2023/03/08 07:02:44;;;;;;;15.80;8.70;;;;;;;1.74;79.08;98553.42;130600;1256;107449;-72
2023/03/08 07:05:50;;;;;;;13.20;8.30;;;;;;;1.71;79.06;98559.33;130824;1261;107412;-72
2023/03/08 07:08:55;;;;;;;18.80;9.60;;;;;;;1.71;79.14;98565.64;130657;1260;107527;-74
2023/03/08 07:12:01;;;;;;;14.70;8.60;;;;;;;1.74;79.26;98565.67;130661;1270;105788;-74
2023/03/08 07:15:09;;;;;;;14.00;7.50;;;;;;;1.79;79.04;98568.66;130586;1257;107566;-71
2023/03/08 07:18:15;;;;;;;11.20;7.70;;;;;;;1.83;78.92;98569.66;130615;1261;106614;-71
2023/03/08 07:21:20;;;;;;;13.00;7.20;;;;;;;1.90;78.65;98569.70;130665;1260;108637;-73
2023/03/08 07:24:26;;;;;;;10.90;6.60;;;;;;;1.91;78.33;98572.75;130628;1262;107556;-73
2023/03/08 07:27:31;;;;;;;12.60;7.00;;;;;;;1.94;78.30;98577.38;130554;1262;107326;-72
2023/03/08 07:30:37;;;;;;;11.70;7.20;;;;;;;1.96;78.36;98578.79;130698;1260;107514;-72
2023/03/08 07:33:43;;;;;;;10.70;7.50;;;;;;;1.91;78.02;98579.06;130710;1258;106922;-72
2023/03/08 07:36:49;;;;;;;15.90;9.30;;;;;;;1.88;77.99;98585.29;130549;1256;106590;-73
2023/03/08 07:39:55;;;;;;;116.70;43.10;;;;;;;1.87;77.97;98588.17;130539;1261;106782;-74
2023/03/08 07:43:01;;;;;;;184.80;72.20;;;;;;;1.90;78.05;98590.75;130486;1259;107531;-73
2023/03/08 07:46:13;;;;;;;323.60;111.80;;;;;;;1.91;77.97;98592.52;130511;1261;107455;-72
2023/03/08 07:49:18;;;;;;;112.80;36.60;;;;;;;1.93;77.69;98596.63;130530;1258;107385;-73
2023/03/08 07:52:28;;;;;;;520.70;152.00;;;;;;;1.89;77.90;98606.27;130437;1260;107520;-75
2023/03/08 07:55:34;;;;;;;316.40;81.70;;;;;;;1.91;77.90;98613.12;130640;1256;106218;-74
2023/03/08 07:58:40;;;;;;;263.90;68.20;;;;;;;1.97;78.10;98617.80;130492;1260;108605;-72
2023/03/08 08:01:46;;;;;;;106.00;33.50;;;;;;;2.10;77.87;98616.33;130586;1261;107158;-72
2023/03/08 08:04:52;;;;;;;286.90;74.00;;;;;;;2.21;77.94;98621.05;130655;1258;108319;-74
2023/03/08 08:07:57;;;;;;;338.90;88.00;;;;;;;2.29;77.34;98627.39;130508;1258;107260;-74
2023/03/08 08:11:09;;;;;;;214.40;52.40;;;;;;;2.32;77.85;98621.46;130528;1261;108463;-74
2023/03/08 08:14:15;;;;;;;359.40;91.20;;;;;;;2.42;77.84;98617.76;130496;1261;108421;-75
2023/03/08 08:17:22;;;;;;;405.90;103.10;;;;;;;2.47;77.42;98619.99;130503;1261;108552;-73
2023/03/08 08:20:27;;;;;;;260.90;63.90;;;;;;;2.47;77.35;98622.77;130614;1260;107536;-73
2023/03/08 08:23:34;;;;;;;338.50;91.60;;;;;;;2.47;77.34;98627.01;130614;1260;108729;-73
2023/03/08 08:26:41;;;;;;;386.30;92.60;;;;;;;2.51;77.29;98626.45;130666;1261;107556;-74
2023/03/08 08:29:48;;;;;;;181.30;45.60;;;;;;;2.57;77.17;98629.20;130758;1260;108553;-71
2023/03/08 08:32:54;;;;;;;647.30;187.50;;;;;;;2.58;77.11;98634.54;130634;1260;107006;-74
2023/03/08 08:36:02;;;;;;;382.30;100.80;;;;;;;2.63;77.38;98635.16;130489;1260;107540;-74
2023/03/08 08:39:08;;;;;;;319.00;85.50;;;;;;;2.64;76.81;98635.73;130631;1261;108299;-74
2023/03/08 08:42:14;;;;;;;404.50;110.40;;;;;;;2.69;76.67;98642.09;130482;1261;107571;-73
2023/03/08 08:45:20;;;;;;;245.40;70.20;;;;;;;2.79;76.42;98643.86;130708;1257;107418;-73
2023/03/08 08:48:26;;;;;;;156.40;41.20;;;;;;;2.90;76.48;98641.27;130493;1260;108677;-71
2023/03/08 08:51:33;;;;;;;821.00;240.40;;;;;;;2.98;76.35;98642.94;130734;1258;108718;-74
2023/03/08 08:54:39;;;;;;;232.80;62.20;;;;;;;3.20;77.03;98642.99;130727;1256;108553;-74
2023/03/08 08:57:44;;;;;;;498.30;162.20;;;;;;;3.46;76.61;98641.16;130723;1260;108677;-76
2023/03/08 09:00:50;;;;;;;364.30;136.20;;;;;;;3.67;76.22;98646.79;130846;1255;108659;-77
2023/03/08 09:03:56;;;;;;;76.40;38.60;;;;;;;3.83;75.02;98648.15;130579;1260;107604;-76
2023/03/08 09:07:02;;;;;;;32.50;17.10;;;;;;;3.98;75.21;98649.15;130727;1260;106417;-76
2023/03/08 09:10:11;;;;;;;17.70;10.10;;;;;;;4.19;75.17;98642.18;130649;1260;108536;-75
2023/03/08 09:13:17;;;;;;;13.60;7.30;;;;;;;4.23;74.35;98645.81;130690;1256;108214;-75
2023/03/08 09:16:24;;;;;;;14.40;7.60;;;;;;;4.30;74.28;98648.34;130636;1256;107559;-75
2023/03/08 09:19:30;;;;;;;13.00;7.60;;;;;;;4.38;73.38;98642.66;130770;1260;108692;-73
2023/03/08 09:22:36;;;;;;;11.30;6.70;;;;;;;4.44;73.79;98643.60;130732;1256;108636;-73
2023/03/08 09:25:41;;;;;;;11.50;8.20;;;;;;;4.46;73.90;98642.39;130711;1255;108759;-75
2023/03/08 09:28:47;;;;;;;14.50;8.70;;;;;;;4.53;74.07;98644.65;131469;1255;108706;-76
2023/03/08 09:31:53;;;;;;;23.30;18.80;;;;;;;4.53;72.93;98644.77;130818;1261;108777;-73
2023/03/08 09:34:59;;;;;;;11.90;7.20;;;;;;;4.46;73.31;98649.25;130700;1256;106560;-75
2023/03/08 09:38:04;;;;;;;10.30;6.30;;;;;;;4.42;73.60;98647.64;130546;1262;107545;-75
2023/03/08 09:41:45;;;;;;;9.10;6.40;;;;;;;4.44;73.59;98648.55;130602;1261;107811;-75
2023/03/08 09:45:06;;;;;;;8.40;5.70;;;;;;;4.50;73.47;98647.42;130429;1256;107592;-75
2023/03/08 09:48:18;;;;;;;9.60;6.30;;;;;;;4.56;72.63;98646.27;130742;1256;107257;-76
2023/03/08 09:51:27;;;;;;;8.90;6.10;;;;;;;4.65;72.77;98644.70;130649;1262;106684;-74
2023/03/08 09:54:37;;;;;;;8.20;5.40;;;;;;;4.50;69.19;98645.30;130647;1261;107536;-75
2023/03/08 09:57:52;;;;;;;79.10;33.30;;;;;;;4.42;70.69;98643.31;130653;1256;107593;-76
2023/03/08 10:01:06;;;;;;;211.40;73.30;;;;;;;4.40;71.09;98643.87;130700;1260;107537;-75
2023/03/08 10:04:42;;;;;;;35.10;13.80;;;;;;;4.45;71.70;98643.27;130626;1261;108735;-75
2023/03/08 10:07:56;;;;;;;153.40;46.90;;;;;;;4.57;71.93;98644.26;130467;1260;108278;-75
2023/03/08 10:11:06;;;;;;;193.90;56.40;;;;;;;4.54;72.02;98640.27;130502;1256;108034;-75
2023/03/08 10:14:18;;;;;;;74.00;23.90;;;;;;;4.34;68.66;98648.60;130466;1257;107775;-75
2023/03/08 10:17:30;;;;;;;76.80;23.30;;;;;;;4.03;70.67;98653.62;130427;1260;108890;-75
2023/03/08 10:20:38;;;;;;;230.40;65.60;;;;;;;3.95;70.65;98656.54;130456;1260;107553;-72
2023/03/08 10:23:46;;;;;;;158.70;50.20;;;;;;;3.89;70.91;98656.33;130478;1260;108533;-73
2023/03/08 10:26:52;;;;;;;66.80;23.70;;;;;;;3.90;70.17;98659.46;130439;1255;108469;-75
2023/03/08 10:30:00;;;;;;;261.90;81.00;;;;;;;3.88;70.69;98659.98;130500;1261;107465;-75
2023/03/08 10:33:09;;;;;;;292.40;95.30;;;;;;;3.95;70.82;98657.92;130456;1260;108508;-74
2023/03/08 10:36:21;;;;;;;320.70;106.60;;;;;;;4.03;70.72;98664.19;130518;1261;106496;-73
2023/03/08 10:39:27;;;;;;;58.70;22.50;;;;;;;4.16;70.59;98669.08;130573;1260;108405;-75
2023/03/08 10:42:39;;;;;;;234.20;78.70;;;;;;;4.24;70.51;98668.10;130557;1260;108501;-75
2023/03/08 10:45:59;;;;;;;80.60;28.90;;;;;;;4.35;69.37;98670.73;130576;1260;109198;-75
2023/03/08 10:49:18;;;;;;;41.80;17.00;;;;;;;4.46;69.20;98663.79;130512;1260;107551;-74
2023/03/08 10:52:26;;;;;;;37.10;15.80;;;;;;;4.70;69.33;98654.89;130646;1257;107412;-75
2023/03/08 10:55:42;;;;;;;63.00;33.10;;;;;;;4.86;69.58;98653.64;130587;1256;107566;-75
2023/03/08 10:58:48;;;;;;;125.90;59.30;;;;;;;5.01;68.90;98654.45;130582;1258;108525;-75
2023/03/08 11:01:57;;;;;;;29.90;14.90;;;;;;;5.13;69.10;98650.53;130731;1259;107812;-74
2023/03/08 11:05:17;;;;;;;47.50;28.80;;;;;;;5.23;69.15;98647.23;130545;1257;108209;-75
2023/03/08 11:08:25;;;;;;;41.40;24.90;;;;;;;5.11;68.56;98644.08;130548;1257;108581;-74
2023/03/08 11:11:42;;;;;;;33.00;20.50;;;;;;;4.94;68.98;98646.51;130599;1256;108482;-74
2023/03/08 11:14:48;;;;;;;61.20;33.20;;;;;;;4.84;68.83;98644.36;130690;1259;108538;-74
2023/03/08 11:18:01;;;;;;;99.60;47.20;;;;;;;4.73;68.78;98638.22;130625;1255;108508;-80
2023/03/08 11:21:14;;;;;;;36.30;17.00;;;;;;;4.83;69.18;98627.75;130784;1254;107001;-75
2023/03/08 11:24:32;;;;;;;23.30;11.90;;;;;;;5.08;68.64;98621.43;130689;1256;108739;-76
2023/03/08 11:27:57;;;;;;;317.50;88.50;;;;;;;5.31;67.38;98620.14;130666;1256;106792;-75
2023/03/08 11:31:18;;;;;;;185.10;52.60;;;;;;;5.60;67.44;98614.98;130702;1270;108187;-76
2023/03/08 11:34:49;;;;;;;111.80;32.40;;;;;;;5.83;66.80;98607.21;130542;1259;108694;-76
2023/03/08 11:38:03;;;;;;;107.60;31.70;;;;;;;5.95;66.55;98611.16;130544;1257;107784;-75
2023/03/08 11:41:20;;;;;;;45.80;15.10;;;;;;;5.86;66.49;98610.06;130681;1261;108524;-74
2023/03/08 11:44:39;;;;;;;185.90;54.50;;;;;;;5.75;66.17;98607.59;130692;1260;108522;-74
2023/03/08 11:48:04;;;;;;;136.50;44.20;;;;;;;5.70;66.59;98604.20;130779;1256;108954;-74
2023/03/08 11:51:20;;;;;;;143.40;44.40;;;;;;;5.84;66.82;98602.71;130613;1271;109190;-75
2023/03/08 11:54:38;;;;;;;120.80;37.20;;;;;;;5.92;66.11;98605.23;130723;1260;106485;-75
2023/03/08 11:57:48;;;;;;;153.90;48.70;;;;;;;5.96;65.77;98601.77;130663;1257;108542;-75
2023/03/08 12:00:59;;;;;;;127.60;40.00;;;;;;;6.07;65.84;98602.60;130433;1261;108217;-74
2023/03/08 12:04:11;;;;;;;126.30;44.30;;;;;;;6.17;63.25;98601.70;130650;1262;108524;-76
2023/03/08 12:07:25;;;;;;;74.50;29.10;;;;;;;6.12;64.78;98604.35;130563;1260;108450;-77
2023/03/08 12:10:35;;;;;;;79.20;30.10;;;;;;;6.19;64.27;98599.19;130832;1256;108460;-77
2023/03/08 12:13:44;;;;;;;52.30;23.50;;;;;;;6.20;64.63;98598.16;130689;1254;108662;-76
2023/03/08 12:16:54;;;;;;;52.50;23.20;;;;;;;6.17;63.85;98602.30;130691;1257;108682;-74
2023/03/08 12:20:00;;;;;;;41.00;18.90;;;;;;;6.11;63.32;98605.02;130717;1260;107585;-74
2023/03/08 12:23:21;;;;;;;41.90;19.50;;;;;;;6.07;64.30;98593.23;130652;1254;108427;-78
2023/03/08 12:26:31;;;;;;;49.60;22.60;;;;;;;5.98;63.34;98598.67;130594;1259;108556;-76
2023/03/08 12:29:43;;;;;;;30.90;16.10;;;;;;;5.92;63.58;98598.89;130481;1256;108365;-77
2023/03/08 12:32:53;;;;;;;28.40;14.70;;;;;;;5.93;63.12;98596.67;130677;1256;108267;-75
2023/03/08 12:36:01;;;;;;;16.00;10.20;;;;;;;6.04;63.74;98588.49;130728;1254;108553;-78
2023/03/08 12:39:24;;;;;;;19.40;10.20;;;;;;;6.17;62.93;98588.50;130740;1258;108543;-80
2023/03/08 12:42:37;;;;;;;14.30;9.00;;;;;;;6.28;63.91;98585.84;130509;1261;107532;-75
2023/03/08 12:45:45;;;;;;;11.90;8.20;;;;;;;6.50;63.96;98581.75;130919;1254;107401;-77
2023/03/08 12:48:52;;;;;;;9.90;6.30;;;;;;;6.69;63.73;98580.55;130949;1256;107558;-75
2023/03/08 12:52:01;;;;;;;12.70;9.30;;;;;;;6.85;63.48;98578.73;130638;1256;107391;-77
2023/03/08 12:55:18;;;;;;;9.10;5.40;;;;;;;7.00;63.42;98575.29;130770;1260;107537;-75
2023/03/08 12:58:24;;;;;;;18.60;12.60;;;;;;;7.08;63.21;98568.73;130402;1260;107916;-76
2023/03/08 13:01:33;;;;;;;19.10;12.70;;;;;;;7.17;62.85;98577.02;130502;1260;107597;-77
2023/03/08 13:04:41;;;;;;;12.20;7.90;;;;;;;7.12;62.65;98575.64;130593;1261;107612;-77
2023/03/08 13:08:00;;;;;;;21.40;13.90;;;;;;;7.15;62.97;98571.34;130503;1256;108611;-78
2023/03/08 13:11:10;;;;;;;18.50;11.70;;;;;;;7.21;62.50;98569.03;130653;1261;107501;-76
2023/03/08 13:14:37;;;;;;;10.10;6.50;;;;;;;7.12;62.13;98564.48;130480;1260;107483;-77
2023/03/08 13:17:51;;;;;;;13.40;10.50;;;;;;;7.00;62.75;98566.67;130506;1256;108464;-80
2023/03/08 13:21:14;;;;;;;123.20;50.70;;;;;;;6.96;62.93;98563.41;130473;1260;107872;-77
2023/03/08 13:24:30;;;;;;;86.90;33.90;;;;;;;6.86;61.56;98557.93;130561;1261;108789;-78
2023/03/08 13:27:49;;;;;;;111.40;41.70;;;;;;;6.70;61.97;98564.18;130515;1260;108577;-77
2023/03/08 13:30:58;;;;;;;769.10;310.80;;;;;;;6.58;62.10;98556.06;130556;1261;108454;-76
2023/03/08 13:34:03;;;;;;;398.50;121.50;;;;;;;6.48;62.26;98557.05;130764;1260;107543;-74
2023/03/08 13:37:22;;;;;;;260.50;77.50;;;;;;;6.33;62.79;98551.20;130658;1260;108708;-75
2023/03/08 13:40:29;;;;;;;204.60;65.30;;;;;;;6.22;62.33;98547.32;130684;1260;107561;-74
2023/03/08 13:43:36;;;;;;;124.60;41.50;;;;;;;6.14;62.57;98539.41;130667;1261;107750;-76
2023/03/08 13:46:42;;;;;;;140.50;47.10;;;;;;;6.06;62.10;98537.53;130572;1257;108587;-76
2023/03/08 13:49:49;;;;;;;44.30;17.70;;;;;;;6.04;62.39;98537.06;130675;1260;107546;-79
2023/03/08 13:52:55;;;;;;;54.30;24.80;;;;;;;6.04;62.68;98541.34;130911;1256;107457;-77
2023/03/08 13:56:04;;;;;;;22.50;12.50;;;;;;;6.05;62.46;98527.27;130755;1256;108291;-76
2023/03/08 13:59:19;;;;;;;70.60;40.70;;;;;;;6.06;62.46;98523.23;130761;1259;108527;-75
2023/03/08 14:02:27;;;;;;;60.50;35.70;;;;;;;6.14;62.36;98528.25;130706;1256;108362;-77
2023/03/08 14:05:40;;;;;;;21.90;12.00;;;;;;;6.19;62.55;98521.83;130660;1260;107295;-75
2023/03/08 14:08:47;;;;;;;14.40;8.30;;;;;;;6.31;62.48;98521.09;130650;1260;107208;-74
2023/03/08 14:11:59;;;;;;;12.10;6.70;;;;;;;6.34;61.75;98521.34;130715;1260;107781;-74
2023/03/08 14:15:07;;;;;;;8.70;6.20;;;;;;;6.27;62.06;98520.13;130671;1256;108088;-77
2023/03/08 14:18:22;;;;;;;8.70;6.10;;;;;;;6.26;62.57;98517.25;130644;1256;107548;-76
2023/03/08 14:21:30;;;;;;;9.00;6.10;;;;;;;6.27;62.87;98515.02;130660;1256;106593;-75